Main page
METAR-TAF:

METAR-TAF

Airports :

Alta Airport

Alta, Norway

latitude: 69-59N, longitude: 023-22E, elevation: 0 m

Current weather observation

The report was made 20 minutes ago, at 03:50 UTC
Wind 2 kt from variable directions
Temperature -11°C
Humidity 85%
Pressure 991 hPa
Visibility 10 km or more

METAR: ENAT 250350Z AUTO VRB02KT 9999 SCT042/// M11/M13 Q0991 RMK WIND 700FT 18008KT

Time: 05:10 (04:10 UTC)

Forecast

The report was made 2 hours and 10 minutes ago, at 02:00 UTC
Forecast valid from 25 at 03 UTC to 25 at 12 UTC
Wind 5 kt from the South
Visibility 10 km or more
Broken clouds at a height of 2500 ft
Temporary
from 25 at 03 UTC to 25 at 12 UTC
Visibility: 2000 m
at a height of 800 ft
snow showers

TAF: ENAT 250200Z 2503/2512 19005KT 9999 BKN025 TEMPO 2503/2512 2000 SHSN VV008

Weather observations and forecasts of more than 4000 airports (METAR and TAF reports).

The available stations are represented by yellow and red dots on the map.

Hover mouse over dot to see the name of the station.

Then click to see weather observations and forecasts.

To change the map : click on the green buttons with a black cross to zoom in, on the green button with a dash to zoom out, or on the green arrows for adjacent maps.


METAR-TAF: